Atlanta, GA

7:24 AM EST on December 25, 2014 (GMT -0500)
Buckhead Forest | Change Station
CLOSE
Current Station
Personal Weather Station
Location: Atlanta, GA
Elevation: 1010 ft
Nearby Weather Stations
Active Advisory: Flood Warning Active Notice: Record Report

Elev 1010 ft 33.84 °N, 84.38 °W | Updated 2 seconds ago

Partly Cloudy
Partly Cloudy
37.5 °F
Feels Like 38 °F
N
0.0
Wind Variable Wind from WSW
Gusts 1.0 mph

Today
High -- | Low -- °F
--% Chance of Precip.
Yesterday
High -- | Low -- °F
Precip. -- in
7:40 AM 5:34 PM
Waxing Crescent, 16% visible
Pressure 30.12 in
Visibility 10.0 miles
Clouds Mostly Cloudy 3600 ft
Windchill 38 °F
Dew Point 35 °F
Humidity 92%
Rainfall 0.00 in
Snow Depth Not available.
UV 0.0 out of 12
Pollen .30 out of 12
Air Quality Not available.
Flu Activity Not available.
METAR KPDK 251153Z 27007KT 10SM BKN036 04/01 A3009 RMK AO2 SLP198 70015 T00390011 10078 20039 53029 $

More Conditions Fewer Conditions

Pressure 30.12 in
Visibility 10.0 miles
Clouds Mostly Cloudy 3600 ft
Windchill 38 °F
Dew Point 35 °F
Humidity 92%
Rainfall 0.00 in
Snow Depth Not available.
UV 0.0 out of 12
Pollen .30 out of 12
Air Quality Not available.
Flu Activity Not available.
METAR KPDK 251153Z 27007KT 10SM BKN036 04/01 A3009 RMK AO2 SLP198 70015 T00390011 10078 20039 53029 $

More Conditions Fewer Conditions

10-Day Weather Forecast

Almanac

Astronomy

Dec. 25, 2014 Rise Set
Actual Time
Civil Twilight
Nautical Twilight
Astronomical Twilight
Moon
Length of Visible Light
Length of Day
Tomorrow will be .
, % of the Moon is Illuminated

Today's Extremes

State Highs State Lows

Community

WunderPhotos

Upload Photos

1,780,266 photos uploaded!

WunderBlogs® & News

Nearby

Air Quality

  Air Quality AQ Index Pollutant
Not available.

Snow Depth

Station Depth Elevation

Earthquake Activity

City Distance Mag. Time & Date
Minimum magnitude displayed is 2.5.

Coastal Water Temperatures

Place Temperature

Nearby Weather Stations